Keating, Oregon
Current Conditions -  °F | °C
As of 7:53 PM on Saturday 20 Dec 2014 (Local Time) from KBKE Reporting Station
Overcast Overcast  
Wind Chill: 31°   Ceiling: 6000
Heat Index: 40°   Visibility: 10mi
Dew Point: 35°   Wind: 17mph
Humidity: 83%   Direction: 140°SE
Pressure: 29.78"   Gusts: 22mph
Location:  44.7595°N, 117.716°W
Report Text: KBKE 210353Z AUTO 14015G19KT 10SM BKN060 OVC075 04/02 A2978 RMK AO2 RAE0258B23E53 SLP097 P0000 T00440017 TSNO
Loading
Personal Weather Stations






























Interactive Weather Map New forecast layout! Learn more

10-Day Weather Forecast

Advertisements
Track Severe Weather on mobile